Soleil Weather Down

Nearby METAR Reports

 

KCNI - Canton/Cherokee, Georgia, USA
Distance from station: ENE 6mi, 10km
Updated: Thu, 19-May-2022 12:55am EDT
Clear
Clear
 Wind from calm
Wind: Calm
Temperature: 72°F , 22°C
Dew Point: 57°F , 14°C
Humidity: 61%
Barometer: 29.95 inHg , 1014.2 hPa
Clouds: Clear
Visibility: 10 miles , 16 km
2022/05/19 04:55 KCNI 190455Z AUTO 00000KT 10SM CLR 22/14 A2995 RMK AO2
KRYY - Marietta Mccolum, Georgia, USA
Distance from station: SSW 18mi, 29km
Updated: Thu, 19-May-2022 12:50am EDT
Clear
Clear
 Wind from SW
Wind: SW 6 mph , 9 km/h
Temperature: 73°F , 23°C
Dew Point: 61°F , 16°C
Humidity: 65%
Barometer: 29.95 inHg , 1014.2 hPa
Clouds: Clear
Visibility: 10 miles , 16 km
2022/05/19 04:50 KRYY 190450Z AUTO 23005KT 10SM CLR 23/16 A2995 RMK AO2 SLP128 T02280161 $
KVPC - Cartersville, Georgia, USA
Distance from station: WSW 22mi, 35km
Updated: Thu, 19-May-2022 1:15am EDT
Partly cloudy
Partly cloudy
 Wind from calm
Wind: Calm
Temperature: 70°F , 21°C
Dew Point: 63°F , 17°C
Humidity: 78%
Barometer: 29.92 inHg , 1013.2 hPa
Clouds: Partly cloudy
Visibility: 10 miles , 16 km
Cloud details: Partly cloudy 4500 ft
2022/05/19 05:15 KVPC 190515Z AUTO 00000KT 10SM SCT045 21/17 A2992 RMK AO2
 
KMGE - Dobbins Afb/Mari, Georgia, USA
Distance from station: S 24mi, 39km
Updated: Thu, 19-May-2022 12:56am EDT
Clear
Clear
 Wind from SW
Wind: SW 5 mph , 7 km/h
Temperature: 73°F , 23°C
Dew Point: 61°F , 16°C
Humidity: 65%
Barometer: 29.92 inHg , 1013.2 hPa
Clouds: Clear
Visibility: 10 miles , 16 km
2022/05/19 04:56 KMGE 190456Z AUTO 22004KT 10SM CLR 23/16 A2992 RMK AO2 SLP123 T02270155 403030190 $
KPDK - Peachtree/Dekalb, Georgia, USA
Distance from station: SSE 29mi, 47km
Updated: Thu, 19-May-2022 12:53am EDT
Clear
Clear
 Wind from SW
Wind: SW 9 mph , 15 km/h
Temperature: 75°F , 24°C
Dew Point: 61°F , 16°C
Humidity: 61%
Barometer: 29.93 inHg , 1013.5 hPa
Clouds: Clear
Visibility: 10 miles , 16 km
2022/05/19 04:53 KPDK 190453Z AUTO 22008KT 10SM CLR 24/16 A2993 RMK AO2 SLP117 T02390161 403110122
KFTY - Atlanta/Fulton, Georgia, USA
Distance from station: S 34mi, 54km
Updated: Thu, 19-May-2022 12:53am EDT
Clear
Clear
 Wind from SSW
Wind: SSW 3 mph , 6 km/h
Temperature: 72°F , 22°C
Dew Point: 61°F , 16°C
Humidity: 69%
Barometer: 29.93 inHg , 1013.5 hPa
Clouds: Clear
Visibility: 10 miles , 16 km
2022/05/19 04:53 KFTY 190453Z 20003KT 10SM CLR 22/16 A2993 RMK AO2 SLP126 T02220156 403060122
 
KPUJ - Atlanta/Paulding, Georgia, USA
Distance from station: SW 34mi, 55km
Updated: Thu, 19-May-2022 1:15am EDT
Clear
Clear
 Wind from SW
Wind: SW 5 mph , 7 km/h
Temperature: 72°F , 22°C
Dew Point: 61°F , 16°C
Humidity: 69%
Barometer: 29.94 inHg , 1013.9 hPa
Clouds: Clear
Visibility: 10 miles , 16 km
2022/05/19 05:15 KPUJ 190515Z AUTO 22004KT 10SM CLR 22/16 A2994 RMK AO2
KDNN - Dalton, Georgia, USA
Distance from station: NW 37mi, 59km
Updated: Thu, 19-May-2022 12:55am EDT
Clear
Clear
 Wind from calm
Wind: Calm
Temperature: 70°F , 21°C
Dew Point: 59°F , 15°C
Humidity: 69%
Barometer: 29.93 inHg , 1013.5 hPa
Clouds: Clear
Visibility: 10 miles , 16 km
2022/05/19 04:55 KDNN 190455Z AUTO 00000KT 10SM CLR 21/15 A2993 RMK AO2
KLZU - Lawrenceville, Georgia, USA
Distance from station: ESE 37mi, 59km
Updated: Thu, 19-May-2022 12:56am EDT
Clear
Clear
 Wind from calm
Wind: Calm
Temperature: 70°F , 21°C
Dew Point: 57°F , 14°C
Humidity: 64%
Barometer: 29.94 inHg , 1013.9 hPa
Clouds: Clear
Visibility: 10 miles , 16 km
2022/05/19 04:56 KLZU 190456Z AUTO 00000KT 10SM CLR 21/14 A2994 RMK AO2 SLP139 T02060144 403110128
 
KRMG - Rome, Georgia, USA
Distance from station: W 38mi, 61km
Updated: Thu, 19-May-2022 12:53am EDT
Clear
Clear
 Wind from calm
Wind: Calm
Temperature: 70°F , 21°C
Dew Point: 63°F , 17°C
Humidity: 78%
Barometer: 29.90 inHg , 1012.5 hPa
Clouds: Clear
Visibility: 10 miles , 16 km
2022/05/19 04:53 KRMG 190453Z AUTO 00000KT 10SM CLR 21/17 A2990 RMK AO2 SLP115 T02060167 403220122
KGVL - Gainesville, Georgia, USA
Distance from station: E 39mi, 62km
Updated: Thu, 19-May-2022 12:53am EDT
Clear
Clear
 Wind from SW
Wind: SW 7 mph , 11 km/h
Temperature: 73°F , 23°C
Dew Point: 57°F , 14°C
Humidity: 57%
Barometer: 29.96 inHg , 1014.6 hPa
Clouds: Clear
Visibility: 10 miles , 16 km
2022/05/19 04:53 KGVL 190453Z AUTO 23006KT 10SM CLR 23/14 A2996 RMK AO2 SLP127 T02330139 403060139
KATL - Atlanta, Georgia, USA
Distance from station: S 44mi, 71km
Updated: Thu, 19-May-2022 12:52am EDT
Partly cloudy
Partly cloudy
 Wind from SW
Wind: SW 7 mph , 11 km/h
Temperature: 73°F , 23°C
Dew Point: 61°F , 16°C
Humidity: 65%
Barometer: 29.94 inHg , 1013.9 hPa
Clouds: Partly cloudy
Visibility: 10 miles , 16 km
Cloud details: Partly cloudy 25000 ft
2022/05/19 04:52 KATL 190452Z 22006KT 10SM SCT250 23/16 A2994 RMK AO2 SLP127 T02330161 403110172